sensor_id;sensor_type;location;lat;lon;timestamp;temperature;humidity
31733;DHT22;18312;51.486;7.144;2023-04-16T00:01:31;7.80;99.90
31733;DHT22;18312;51.486;7.144;2023-04-16T00:03:58;7.80;99.90
31733;DHT22;18312;51.486;7.144;2023-04-16T00:06:24;7.80;99.90
31733;DHT22;18312;51.486;7.144;2023-04-16T00:08:52;7.80;99.90
31733;DHT22;18312;51.486;7.144;2023-04-16T00:11:18;7.80;99.90
31733;DHT22;18312;51.486;7.144;2023-04-16T00:13:46;7.80;99.90
31733;DHT22;18312;51.486;7.144;2023-04-16T00:16:13;7.80;99.90
31733;DHT22;18312;51.486;7.144;2023-04-16T00:18:39;7.80;99.90
31733;DHT22;18312;51.486;7.144;2023-04-16T00:21:06;7.90;99.90
31733;DHT22;18312;51.486;7.144;2023-04-16T00:23:33;7.90;99.90
31733;DHT22;18312;51.486;7.144;2023-04-16T00:25:59;7.90;99.90
31733;DHT22;18312;51.486;7.144;2023-04-16T00:28:26;7.90;99.90
31733;DHT22;18312;51.486;7.144;2023-04-16T00:30:54;7.90;99.90
31733;DHT22;18312;51.486;7.144;2023-04-16T00:33:22;7.90;99.90
31733;DHT22;18312;51.486;7.144;2023-04-16T00:35:49;8.00;99.90
31733;DHT22;18312;51.486;7.144;2023-04-16T00:38:15;7.90;99.90
31733;DHT22;18312;51.486;7.144;2023-04-16T00:40:42;7.90;99.90
31733;DHT22;18312;51.486;7.144;2023-04-16T00:43:09;8.00;99.90
31733;DHT22;18312;51.486;7.144;2023-04-16T00:45:35;8.00;99.90
31733;DHT22;18312;51.486;7.144;2023-04-16T00:48:03;8.00;99.90
31733;DHT22;18312;51.486;7.144;2023-04-16T00:50:30;8.00;99.90
31733;DHT22;18312;51.486;7.144;2023-04-16T00:53:00;8.10;99.90
31733;DHT22;18312;51.486;7.144;2023-04-16T00:55:28;8.10;99.90
31733;DHT22;18312;51.486;7.144;2023-04-16T00:57:55;8.00;99.90
31733;DHT22;18312;51.486;7.144;2023-04-16T01:00:21;8.00;99.90
31733;DHT22;18312;51.486;7.144;2023-04-16T01:02:48;8.00;99.90
31733;DHT22;18312;51.486;7.144;2023-04-16T01:05:16;8.00;99.90
31733;DHT22;18312;51.486;7.144;2023-04-16T01:07:42;8.00;99.90
31733;DHT22;18312;51.486;7.144;2023-04-16T01:10:09;8.00;99.90
31733;DHT22;18312;51.486;7.144;2023-04-16T01:12:35;8.00;99.90
31733;DHT22;18312;51.486;7.144;2023-04-16T01:15:02;8.00;99.90
31733;DHT22;18312;51.486;7.144;2023-04-16T01:17:29;8.10;99.90
31733;DHT22;18312;51.486;7.144;2023-04-16T01:19:56;8.00;99.90
31733;DHT22;18312;51.486;7.144;2023-04-16T01:22:25;8.00;99.90
31733;DHT22;18312;51.486;7.144;2023-04-16T01:24:51;8.00;99.90
31733;DHT22;18312;51.486;7.144;2023-04-16T01:27:17;8.00;99.90
31733;DHT22;18312;51.486;7.144;2023-04-16T01:29:44;8.10;99.90
31733;DHT22;18312;51.486;7.144;2023-04-16T01:32:11;8.10;99.90
31733;DHT22;18312;51.486;7.144;2023-04-16T01:34:37;8.10;99.90
31733;DHT22;18312;51.486;7.144;2023-04-16T01:37:04;8.00;99.90
31733;DHT22;18312;51.486;7.144;2023-04-16T01:39:32;8.10;99.90
31733;DHT22;18312;51.486;7.144;2023-04-16T01:41:58;8.10;99.90
31733;DHT22;18312;51.486;7.144;2023-04-16T01:44:25;8.10;99.90
31733;DHT22;18312;51.486;7.144;2023-04-16T01:46:52;8.10;99.90
31733;DHT22;18312;51.486;7.144;2023-04-16T01:49:18;8.10;99.90
31733;DHT22;18312;51.486;7.144;2023-04-16T01:51:45;8.10;99.90
31733;DHT22;18312;51.486;7.144;2023-04-16T01:54:12;8.20;99.90
31733;DHT22;18312;51.486;7.144;2023-04-16T01:56:39;8.20;99.90
31733;DHT22;18312;51.486;7.144;2023-04-16T01:59:06;8.20;99.90
31733;DHT22;18312;51.486;7.144;2023-04-16T02:01:32;8.10;99.90
31733;DHT22;18312;51.486;7.144;2023-04-16T02:03:59;8.10;99.90
31733;DHT22;18312;51.486;7.144;2023-04-16T02:06:25;8.20;99.90
31733;DHT22;18312;51.486;7.144;2023-04-16T02:08:52;8.20;99.90
31733;DHT22;18312;51.486;7.144;2023-04-16T02:11:19;8.20;99.90
31733;DHT22;18312;51.486;7.144;2023-04-16T02:13:47;8.10;99.90
31733;DHT22;18312;51.486;7.144;2023-04-16T02:16:13;8.20;99.90
31733;DHT22;18312;51.486;7.144;2023-04-16T02:18:40;8.20;99.90
31733;DHT22;18312;51.486;7.144;2023-04-16T02:21:07;8.20;99.90
31733;DHT22;18312;51.486;7.144;2023-04-16T02:23:33;8.20;99.90
31733;DHT22;18312;51.486;7.144;2023-04-16T02:26:01;8.20;99.90
31733;DHT22;18312;51.486;7.144;2023-04-16T02:28:28;8.20;99.90
31733;DHT22;18312;51.486;7.144;2023-04-16T02:30:56;8.20;99.90
31733;DHT22;18312;51.486;7.144;2023-04-16T02:33:23;8.20;99.90
31733;DHT22;18312;51.486;7.144;2023-04-16T02:35:50;8.20;99.90
31733;DHT22;18312;51.486;7.144;2023-04-16T02:38:17;8.20;99.90
31733;DHT22;18312;51.486;7.144;2023-04-16T02:40:43;8.20;99.90
31733;DHT22;18312;51.486;7.144;2023-04-16T02:43:10;8.20;99.90
31733;DHT22;18312;51.486;7.144;2023-04-16T02:45:36;8.20;99.90
31733;DHT22;18312;51.486;7.144;2023-04-16T02:48:05;8.20;99.90
31733;DHT22;18312;51.486;7.144;2023-04-16T02:50:33;8.20;99.90
31733;DHT22;18312;51.486;7.144;2023-04-16T02:52:59;8.20;99.90
31733;DHT22;18312;51.486;7.144;2023-04-16T02:55:26;8.20;99.90
31733;DHT22;18312;51.486;7.144;2023-04-16T02:57:53;8.20;99.90
31733;DHT22;18312;51.486;7.144;2023-04-16T03:00:20;8.20;99.90
31733;DHT22;18312;51.486;7.144;2023-04-16T03:02:46;8.30;99.90
31733;DHT22;18312;51.486;7.144;2023-04-16T03:05:14;8.20;99.90
31733;DHT22;18312;51.486;7.144;2023-04-16T03:07:41;8.30;99.90
31733;DHT22;18312;51.486;7.144;2023-04-16T03:10:07;8.30;99.90
31733;DHT22;18312;51.486;7.144;2023-04-16T03:12:34;8.30;99.90
31733;DHT22;18312;51.486;7.144;2023-04-16T03:15:01;8.20;99.90
31733;DHT22;18312;51.486;7.144;2023-04-16T03:17:27;8.20;99.90
31733;DHT22;18312;51.486;7.144;2023-04-16T03:19:54;8.30;99.90
31733;DHT22;18312;51.486;7.144;2023-04-16T03:22:22;8.30;99.90
31733;DHT22;18312;51.486;7.144;2023-04-16T03:24:48;8.30;99.90
31733;DHT22;18312;51.486;7.144;2023-04-16T03:27:15;8.30;99.90
31733;DHT22;18312;51.486;7.144;2023-04-16T03:29:41;8.30;99.90
31733;DHT22;18312;51.486;7.144;2023-04-16T03:32:08;8.30;99.90
31733;DHT22;18312;51.486;7.144;2023-04-16T03:34:36;8.30;99.90
31733;DHT22;18312;51.486;7.144;2023-04-16T03:37:03;8.30;99.90
31733;DHT22;18312;51.486;7.144;2023-04-16T03:39:31;8.30;99.90
31733;DHT22;18312;51.486;7.144;2023-04-16T03:41:58;8.30;99.90
31733;DHT22;18312;51.486;7.144;2023-04-16T03:44:25;8.30;99.90
31733;DHT22;18312;51.486;7.144;2023-04-16T03:46:51;8.30;99.90
31733;DHT22;18312;51.486;7.144;2023-04-16T03:49:18;8.30;99.90
31733;DHT22;18312;51.486;7.144;2023-04-16T03:51:44;8.30;99.90
31733;DHT22;18312;51.486;7.144;2023-04-16T03:54:10;8.40;99.90
31733;DHT22;18312;51.486;7.144;2023-04-16T03:56:39;8.40;99.90
31733;DHT22;18312;51.486;7.144;2023-04-16T03:59:06;8.30;99.90
31733;DHT22;18312;51.486;7.144;2023-04-16T04:01:33;8.30;99.90
31733;DHT22;18312;51.486;7.144;2023-04-16T04:03:59;8.30;99.90
31733;DHT22;18312;51.486;7.144;2023-04-16T04:06:26;8.30;99.90
31733;DHT22;18312;51.486;7.144;2023-04-16T04:08:53;8.30;99.90
31733;DHT22;18312;51.486;7.144;2023-04-16T04:11:19;8.30;99.90
31733;DHT22;18312;51.486;7.144;2023-04-16T04:13:47;8.30;99.90
31733;DHT22;18312;51.486;7.144;2023-04-16T04:16:14;8.30;99.90
31733;DHT22;18312;51.486;7.144;2023-04-16T04:18:40;8.30;99.90
31733;DHT22;18312;51.486;7.144;2023-04-16T04:21:07;8.40;99.90
31733;DHT22;18312;51.486;7.144;2023-04-16T04:23:34;8.40;99.90
31733;DHT22;18312;51.486;7.144;2023-04-16T04:26:00;8.40;99.90
31733;DHT22;18312;51.486;7.144;2023-04-16T04:28:28;8.40;99.90
31733;DHT22;18312;51.486;7.144;2023-04-16T04:30:56;8.40;99.90
31733;DHT22;18312;51.486;7.144;2023-04-16T04:33:23;8.40;99.90
31733;DHT22;18312;51.486;7.144;2023-04-16T04:35:49;8.40;99.90
31733;DHT22;18312;51.486;7.144;2023-04-16T04:38:16;8.40;99.90
31733;DHT22;18312;51.486;7.144;2023-04-16T04:40:44;8.50;99.90
31733;DHT22;18312;51.486;7.144;2023-04-16T04:43:11;8.40;99.90
31733;DHT22;18312;51.486;7.144;2023-04-16T04:45:37;8.40;99.90
31733;DHT22;18312;51.486;7.144;2023-04-16T04:48:05;8.50;99.90
31733;DHT22;18312;51.486;7.144;2023-04-16T04:50:32;8.50;99.90
31733;DHT22;18312;51.486;7.144;2023-04-16T04:52:58;8.50;99.90
31733;DHT22;18312;51.486;7.144;2023-04-16T04:55:25;8.50;99.90
31733;DHT22;18312;51.486;7.144;2023-04-16T04:57:51;8.50;99.90
31733;DHT22;18312;51.486;7.144;2023-04-16T05:00:18;8.50;99.90
31733;DHT22;18312;51.486;7.144;2023-04-16T05:02:44;8.60;99.90
31733;DHT22;18312;51.486;7.144;2023-04-16T05:05:12;8.60;99.90
31733;DHT22;18312;51.486;7.144;2023-04-16T05:07:39;8.60;99.90
31733;DHT22;18312;51.486;7.144;2023-04-16T05:10:06;8.60;99.90
31733;DHT22;18312;51.486;7.144;2023-04-16T05:12:33;8.50;99.90
31733;DHT22;18312;51.486;7.144;2023-04-16T05:14:59;8.60;99.90
31733;DHT22;18312;51.486;7.144;2023-04-16T05:17:26;8.60;99.90
31733;DHT22;18312;51.486;7.144;2023-04-16T05:19:52;8.60;99.90
31733;DHT22;18312;51.486;7.144;2023-04-16T05:22:20;8.60;99.90
31733;DHT22;18312;51.486;7.144;2023-04-16T05:24:47;8.70;99.90
31733;DHT22;18312;51.486;7.144;2023-04-16T05:27:13;8.70;99.90
31733;DHT22;18312;51.486;7.144;2023-04-16T05:29:40;8.70;99.90
31733;DHT22;18312;51.486;7.144;2023-04-16T05:32:07;8.70;99.90
31733;DHT22;18312;51.486;7.144;2023-04-16T05:34:33;8.70;99.90
31733;DHT22;18312;51.486;7.144;2023-04-16T05:37:00;8.70;99.90
31733;DHT22;18312;51.486;7.144;2023-04-16T05:39:27;8.80;99.90
31733;DHT22;18312;51.486;7.144;2023-04-16T05:41:54;8.70;99.90
31733;DHT22;18312;51.486;7.144;2023-04-16T05:44:20;8.80;99.90
31733;DHT22;18312;51.486;7.144;2023-04-16T05:46:47;8.80;99.90
31733;DHT22;18312;51.486;7.144;2023-04-16T05:49:13;8.80;99.90
31733;DHT22;18312;51.486;7.144;2023-04-16T05:51:40;8.80;99.90
31733;DHT22;18312;51.486;7.144;2023-04-16T05:54:06;8.80;99.90
31733;DHT22;18312;51.486;7.144;2023-04-16T05:56:34;8.80;99.90
31733;DHT22;18312;51.486;7.144;2023-04-16T05:59:01;8.80;99.90
31733;DHT22;18312;51.486;7.144;2023-04-16T06:01:27;8.90;99.90
31733;DHT22;18312;51.486;7.144;2023-04-16T06:03:54;8.80;99.90
31733;DHT22;18312;51.486;7.144;2023-04-16T06:06:20;8.90;99.90
31733;DHT22;18312;51.486;7.144;2023-04-16T06:08:47;8.80;99.90
31733;DHT22;18312;51.486;7.144;2023-04-16T06:11:13;8.80;99.90
31733;DHT22;18312;51.486;7.144;2023-04-16T06:13:41;8.80;99.90
31733;DHT22;18312;51.486;7.144;2023-04-16T06:16:08;8.80;99.90
31733;DHT22;18312;51.486;7.144;2023-04-16T06:18:34;8.80;99.90
31733;DHT22;18312;51.486;7.144;2023-04-16T06:21:01;8.80;99.90
31733;DHT22;18312;51.486;7.144;2023-04-16T06:23:28;8.70;99.90
31733;DHT22;18312;51.486;7.144;2023-04-16T06:25:55;8.80;99.90
31733;DHT22;18312;51.486;7.144;2023-04-16T06:28:21;8.80;99.90
31733;DHT22;18312;51.486;7.144;2023-04-16T06:30:49;8.80;99.90
31733;DHT22;18312;51.486;7.144;2023-04-16T06:33:16;8.80;99.90
31733;DHT22;18312;51.486;7.144;2023-04-16T06:35:42;8.80;99.90
31733;DHT22;18312;51.486;7.144;2023-04-16T06:38:09;8.90;99.90
31733;DHT22;18312;51.486;7.144;2023-04-16T06:40:35;8.90;99.90
31733;DHT22;18312;51.486;7.144;2023-04-16T06:43:02;9.00;99.90
31733;DHT22;18312;51.486;7.144;2023-04-16T06:45:29;8.90;99.90
31733;DHT22;18312;51.486;7.144;2023-04-16T06:47:56;8.90;99.90
31733;DHT22;18312;51.486;7.144;2023-04-16T06:50:24;9.00;99.90
31733;DHT22;18312;51.486;7.144;2023-04-16T06:52:51;9.20;99.90
31733;DHT22;18312;51.486;7.144;2023-04-16T06:55:17;9.20;99.90
31733;DHT22;18312;51.486;7.144;2023-04-16T06:57:44;9.20;99.90
31733;DHT22;18312;51.486;7.144;2023-04-16T07:00:10;9.20;99.90
31733;DHT22;18312;51.486;7.144;2023-04-16T07:02:37;9.20;99.90
31733;DHT22;18312;51.486;7.144;2023-04-16T07:05:05;9.30;99.90
31733;DHT22;18312;51.486;7.144;2023-04-16T07:07:33;9.30;99.90
31733;DHT22;18312;51.486;7.144;2023-04-16T07:09:59;9.40;99.90
31733;DHT22;18312;51.486;7.144;2023-04-16T07:12:26;9.50;99.90
31733;DHT22;18312;51.486;7.144;2023-04-16T07:14:52;9.60;99.90
31733;DHT22;18312;51.486;7.144;2023-04-16T07:17:19;9.70;99.90
31733;DHT22;18312;51.486;7.144;2023-04-16T07:19:45;9.80;99.90
31733;DHT22;18312;51.486;7.144;2023-04-16T07:22:13;9.90;99.90
31733;DHT22;18312;51.486;7.144;2023-04-16T07:24:40;9.80;99.90
31733;DHT22;18312;51.486;7.144;2023-04-16T07:27:07;9.80;99.90
31733;DHT22;18312;51.486;7.144;2023-04-16T07:29:33;9.90;99.90
31733;DHT22;18312;51.486;7.144;2023-04-16T07:32:00;9.80;99.90
31733;DHT22;18312;51.486;7.144;2023-04-16T07:34:27;9.90;99.90
31733;DHT22;18312;51.486;7.144;2023-04-16T07:36:53;9.80;99.90
31733;DHT22;18312;51.486;7.144;2023-04-16T07:39:21;9.80;99.90
31733;DHT22;18312;51.486;7.144;2023-04-16T07:41:47;9.90;99.90
31733;DHT22;18312;51.486;7.144;2023-04-16T07:44:14;9.90;99.90
31733;DHT22;18312;51.486;7.144;2023-04-16T07:46:40;9.90;99.90
31733;DHT22;18312;51.486;7.144;2023-04-16T07:49:07;10.00;99.90
31733;DHT22;18312;51.486;7.144;2023-04-16T07:51:33;10.10;99.90
31733;DHT22;18312;51.486;7.144;2023-04-16T07:54:00;9.90;99.90
31733;DHT22;18312;51.486;7.144;2023-04-16T07:56:28;9.90;99.90
31733;DHT22;18312;51.486;7.144;2023-04-16T07:58:55;10.00;99.90
31733;DHT22;18312;51.486;7.144;2023-04-16T08:01:21;10.00;99.90
31733;DHT22;18312;51.486;7.144;2023-04-16T08:03:48;9.80;99.90
31733;DHT22;18312;51.486;7.144;2023-04-16T08:06:14;9.90;99.90
31733;DHT22;18312;51.486;7.144;2023-04-16T08:08:41;10.00;99.90
31733;DHT22;18312;51.486;7.144;2023-04-16T08:11:07;9.90;99.90
31733;DHT22;18312;51.486;7.144;2023-04-16T08:13:35;10.10;99.90
31733;DHT22;18312;51.486;7.144;2023-04-16T08:16:02;10.10;99.90
31733;DHT22;18312;51.486;7.144;2023-04-16T08:18:28;10.20;99.90
31733;DHT22;18312;51.486;7.144;2023-04-16T08:20:55;10.10;99.90
31733;DHT22;18312;51.486;7.144;2023-04-16T08:23:21;10.20;99.90
31733;DHT22;18312;51.486;7.144;2023-04-16T08:25:48;10.30;99.90
31733;DHT22;18312;51.486;7.144;2023-04-16T08:28:14;10.40;99.90
31733;DHT22;18312;51.486;7.144;2023-04-16T08:30:42;10.50;99.90
31733;DHT22;18312;51.486;7.144;2023-04-16T08:33:10;10.60;99.90
31733;DHT22;18312;51.486;7.144;2023-04-16T08:35:36;10.70;99.90
31733;DHT22;18312;51.486;7.144;2023-04-16T08:38:03;10.70;99.90
31733;DHT22;18312;51.486;7.144;2023-04-16T08:40:31;10.80;99.90
31733;DHT22;18312;51.486;7.144;2023-04-16T08:43:00;10.80;99.90
31733;DHT22;18312;51.486;7.144;2023-04-16T08:45:28;11.00;99.90
31733;DHT22;18312;51.486;7.144;2023-04-16T08:47:56;10.90;99.90
31733;DHT22;18312;51.486;7.144;2023-04-16T08:50:23;10.70;99.90
31733;DHT22;18312;51.486;7.144;2023-04-16T08:52:51;10.90;99.90
31733;DHT22;18312;51.486;7.144;2023-04-16T08:55:18;11.10;99.90
31733;DHT22;18312;51.486;7.144;2023-04-16T08:57:47;11.30;99.90
31733;DHT22;18312;51.486;7.144;2023-04-16T09:00:14;11.00;99.90
31733;DHT22;18312;51.486;7.144;2023-04-16T09:02:41;11.00;99.90
31733;DHT22;18312;51.486;7.144;2023-04-16T09:05:09;11.20;99.90
31733;DHT22;18312;51.486;7.144;2023-04-16T09:07:36;11.30;99.90
31733;DHT22;18312;51.486;7.144;2023-04-16T09:10:03;11.40;99.90
31733;DHT22;18312;51.486;7.144;2023-04-16T09:12:31;11.60;99.90
31733;DHT22;18312;51.486;7.144;2023-04-16T09:14:58;11.60;99.90
31733;DHT22;18312;51.486;7.144;2023-04-16T09:17:27;11.30;99.90
31733;DHT22;18312;51.486;7.144;2023-04-16T09:19:54;11.30;99.90
31733;DHT22;18312;51.486;7.144;2023-04-16T09:22:22;11.10;99.90
31733;DHT22;18312;51.486;7.144;2023-04-16T09:24:48;11.40;99.90
31733;DHT22;18312;51.486;7.144;2023-04-16T09:27:15;11.30;99.90
31733;DHT22;18312;51.486;7.144;2023-04-16T09:29:42;11.30;99.90
31733;DHT22;18312;51.486;7.144;2023-04-16T09:32:09;11.60;99.90
31733;DHT22;18312;51.486;7.144;2023-04-16T09:34:52;11.70;99.90
31733;DHT22;18312;51.486;7.144;2023-04-16T09:37:19;11.60;99.90
31733;DHT22;18312;51.486;7.144;2023-04-16T09:39:51;11.80;99.90
31733;DHT22;18312;51.486;7.144;2023-04-16T09:42:20;11.70;99.90
31733;DHT22;18312;51.486;7.144;2023-04-16T09:44:48;11.40;99.90
31733;DHT22;18312;51.486;7.144;2023-04-16T09:47:14;11.50;99.90
31733;DHT22;18312;51.486;7.144;2023-04-16T09:49:41;11.30;99.90
31733;DHT22;18312;51.486;7.144;2023-04-16T09:52:08;11.40;99.90
31733;DHT22;18312;51.486;7.144;2023-04-16T09:54:37;11.50;99.90
31733;DHT22;18312;51.486;7.144;2023-04-16T09:57:08;11.20;99.90
31733;DHT22;18312;51.486;7.144;2023-04-16T09:59:35;11.40;99.90
31733;DHT22;18312;51.486;7.144;2023-04-16T10:02:01;11.60;99.90
31733;DHT22;18312;51.486;7.144;2023-04-16T10:04:28;11.70;99.90
31733;DHT22;18312;51.486;7.144;2023-04-16T10:07:04;12.00;99.90
31733;DHT22;18312;51.486;7.144;2023-04-16T10:09:31;12.00;99.90
31733;DHT22;18312;51.486;7.144;2023-04-16T10:11:58;12.10;99.90
31733;DHT22;18312;51.486;7.144;2023-04-16T10:14:25;12.00;99.90
31733;DHT22;18312;51.486;7.144;2023-04-16T10:16:53;12.00;99.90
31733;DHT22;18312;51.486;7.144;2023-04-16T10:19:20;11.80;99.90
31733;DHT22;18312;51.486;7.144;2023-04-16T10:21:47;12.00;99.90
31733;DHT22;18312;51.486;7.144;2023-04-16T10:24:13;12.40;99.90
31733;DHT22;18312;51.486;7.144;2023-04-16T10:26:42;12.10;99.90
31733;DHT22;18312;51.486;7.144;2023-04-16T10:29:09;12.30;99.90
31733;DHT22;18312;51.486;7.144;2023-04-16T10:31:38;12.10;99.90
31733;DHT22;18312;51.486;7.144;2023-04-16T10:34:06;12.30;99.90
31733;DHT22;18312;51.486;7.144;2023-04-16T10:36:34;12.30;99.90
31733;DHT22;18312;51.486;7.144;2023-04-16T10:39:01;12.90;99.90
31733;DHT22;18312;51.486;7.144;2023-04-16T10:41:30;13.30;99.90
31733;DHT22;18312;51.486;7.144;2023-04-16T10:44:02;13.30;99.90
31733;DHT22;18312;51.486;7.144;2023-04-16T10:46:30;13.60;99.90
31733;DHT22;18312;51.486;7.144;2023-04-16T10:49:00;13.80;99.90
31733;DHT22;18312;51.486;7.144;2023-04-16T10:51:28;13.40;99.90
31733;DHT22;18312;51.486;7.144;2023-04-16T10:53:55;13.00;99.90
31733;DHT22;18312;51.486;7.144;2023-04-16T10:56:22;13.20;99.90
31733;DHT22;18312;51.486;7.144;2023-04-16T10:58:51;13.30;99.90
31733;DHT22;18312;51.486;7.144;2023-04-16T11:01:18;13.30;99.90
31733;DHT22;18312;51.486;7.144;2023-04-16T11:03:51;13.50;99.90
31733;DHT22;18312;51.486;7.144;2023-04-16T11:06:23;14.10;99.90
31733;DHT22;18312;51.486;7.144;2023-04-16T11:08:51;14.30;99.90
31733;DHT22;18312;51.486;7.144;2023-04-16T11:11:17;14.60;99.90
31733;DHT22;18312;51.486;7.144;2023-04-16T11:13:45;14.70;99.90
31733;DHT22;18312;51.486;7.144;2023-04-16T11:16:12;14.10;99.90
31733;DHT22;18312;51.486;7.144;2023-04-16T11:18:38;14.00;99.90
31733;DHT22;18312;51.486;7.144;2023-04-16T11:21:06;13.60;99.90
31733;DHT22;18312;51.486;7.144;2023-04-16T11:23:45;14.10;99.90
31733;DHT22;18312;51.486;7.144;2023-04-16T11:26:18;14.10;99.90
31733;DHT22;18312;51.486;7.144;2023-04-16T11:28:45;14.00;99.90
31733;DHT22;18312;51.486;7.144;2023-04-16T11:31:11;13.70;99.90
31733;DHT22;18312;51.486;7.144;2023-04-16T11:33:38;13.90;99.90
31733;DHT22;18312;51.486;7.144;2023-04-16T11:36:04;13.90;99.90
31733;DHT22;18312;51.486;7.144;2023-04-16T11:38:31;13.90;99.90
31733;DHT22;18312;51.486;7.144;2023-04-16T11:40:59;13.50;99.90
31733;DHT22;18312;51.486;7.144;2023-04-16T11:43:26;13.50;99.90
31733;DHT22;18312;51.486;7.144;2023-04-16T11:45:54;13.30;99.90
31733;DHT22;18312;51.486;7.144;2023-04-16T11:48:21;13.40;99.90
31733;DHT22;18312;51.486;7.144;2023-04-16T11:50:53;13.40;99.90
31733;DHT22;18312;51.486;7.144;2023-04-16T11:53:20;13.30;99.90
31733;DHT22;18312;51.486;7.144;2023-04-16T11:55:46;13.10;99.90
31733;DHT22;18312;51.486;7.144;2023-04-16T11:58:14;13.10;99.90
31733;DHT22;18312;51.486;7.144;2023-04-16T12:00:41;13.20;99.90
31733;DHT22;18312;51.486;7.144;2023-04-16T12:03:08;13.30;99.90
31733;DHT22;18312;51.486;7.144;2023-04-16T12:05:35;13.30;99.90
31733;DHT22;18312;51.486;7.144;2023-04-16T12:08:04;13.30;99.90
31733;DHT22;18312;51.486;7.144;2023-04-16T12:10:31;13.40;99.90
31733;DHT22;18312;51.486;7.144;2023-04-16T12:13:08;13.40;99.90
31733;DHT22;18312;51.486;7.144;2023-04-16T12:15:43;13.50;99.90
31733;DHT22;18312;51.486;7.144;2023-04-16T12:18:10;13.40;99.90
31733;DHT22;18312;51.486;7.144;2023-04-16T12:20:38;13.50;99.90
31733;DHT22;18312;51.486;7.144;2023-04-16T12:23:04;13.60;99.90
31733;DHT22;18312;51.486;7.144;2023-04-16T12:25:31;13.70;99.90
31733;DHT22;18312;51.486;7.144;2023-04-16T12:27:58;13.80;99.90
31733;DHT22;18312;51.486;7.144;2023-04-16T12:30:25;13.70;99.90
31733;DHT22;18312;51.486;7.144;2023-04-16T12:33:11;13.50;99.90
31733;DHT22;18312;51.486;7.144;2023-04-16T12:35:38;13.40;99.90
31733;DHT22;18312;51.486;7.144;2023-04-16T12:38:05;13.30;99.90
31733;DHT22;18312;51.486;7.144;2023-04-16T12:40:32;13.20;99.90
31733;DHT22;18312;51.486;7.144;2023-04-16T12:43:00;13.30;99.90
31733;DHT22;18312;51.486;7.144;2023-04-16T12:45:26;13.40;99.90
31733;DHT22;18312;51.486;7.144;2023-04-16T12:47:54;13.60;99.90
31733;DHT22;18312;51.486;7.144;2023-04-16T12:50:21;13.80;99.90
31733;DHT22;18312;51.486;7.144;2023-04-16T12:52:48;13.70;99.90
31733;DHT22;18312;51.486;7.144;2023-04-16T12:55:14;13.70;99.90
31733;DHT22;18312;51.486;7.144;2023-04-16T12:57:41;13.70;99.90
31733;DHT22;18312;51.486;7.144;2023-04-16T13:00:08;14.00;99.90
31733;DHT22;18312;51.486;7.144;2023-04-16T13:02:35;14.40;99.90
31733;DHT22;18312;51.486;7.144;2023-04-16T13:05:03;14.40;99.90
31733;DHT22;18312;51.486;7.144;2023-04-16T13:07:30;14.60;99.90
31733;DHT22;18312;51.486;7.144;2023-04-16T13:09:58;14.40;99.90
31733;DHT22;18312;51.486;7.144;2023-04-16T13:12:24;14.10;99.90
31733;DHT22;18312;51.486;7.144;2023-04-16T13:14:51;14.20;99.90
31733;DHT22;18312;51.486;7.144;2023-04-16T13:17:18;14.20;99.90
31733;DHT22;18312;51.486;7.144;2023-04-16T13:19:45;14.10;99.90
31733;DHT22;18312;51.486;7.144;2023-04-16T13:22:12;14.30;99.90
31733;DHT22;18312;51.486;7.144;2023-04-16T13:24:39;14.20;99.90
31733;DHT22;18312;51.486;7.144;2023-04-16T13:27:05;14.50;99.90
31733;DHT22;18312;51.486;7.144;2023-04-16T13:29:33;14.10;99.90
31733;DHT22;18312;51.486;7.144;2023-04-16T13:32:00;14.40;99.90
31733;DHT22;18312;51.486;7.144;2023-04-16T13:34:27;14.40;99.90
31733;DHT22;18312;51.486;7.144;2023-04-16T13:36:54;14.40;99.90
31733;DHT22;18312;51.486;7.144;2023-04-16T13:39:22;14.20;99.90
31733;DHT22;18312;51.486;7.144;2023-04-16T13:41:48;14.20;99.90
31733;DHT22;18312;51.486;7.144;2023-04-16T13:44:15;14.20;99.90
31733;DHT22;18312;51.486;7.144;2023-04-16T13:46:42;14.30;99.90
31733;DHT22;18312;51.486;7.144;2023-04-16T13:49:11;14.30;99.90
31733;DHT22;18312;51.486;7.144;2023-04-16T13:51:38;14.30;99.90
31733;DHT22;18312;51.486;7.144;2023-04-16T13:54:04;14.00;99.90
31733;DHT22;18312;51.486;7.144;2023-04-16T13:56:32;14.20;99.90
31733;DHT22;18312;51.486;7.144;2023-04-16T13:58:59;14.10;99.90
31733;DHT22;18312;51.486;7.144;2023-04-16T14:01:25;14.20;99.90
31733;DHT22;18312;51.486;7.144;2023-04-16T14:03:53;14.20;99.90
31733;DHT22;18312;51.486;7.144;2023-04-16T14:06:19;14.30;99.90
31733;DHT22;18312;51.486;7.144;2023-04-16T14:08:46;14.40;99.90
31733;DHT22;18312;51.486;7.144;2023-04-16T14:11:12;14.20;99.90
31733;DHT22;18312;51.486;7.144;2023-04-16T14:13:40;14.10;99.90
31733;DHT22;18312;51.486;7.144;2023-04-16T14:16:07;13.90;99.90
31733;DHT22;18312;51.486;7.144;2023-04-16T14:18:33;13.80;99.90
31733;DHT22;18312;51.486;7.144;2023-04-16T14:21:05;13.90;99.90
31733;DHT22;18312;51.486;7.144;2023-04-16T14:23:31;14.10;99.90
31733;DHT22;18312;51.486;7.144;2023-04-16T14:25:58;14.20;99.90
31733;DHT22;18312;51.486;7.144;2023-04-16T14:28:24;14.30;99.90
31733;DHT22;18312;51.486;7.144;2023-04-16T14:30:52;14.30;99.90
31733;DHT22;18312;51.486;7.144;2023-04-16T14:33:19;14.30;99.90
31733;DHT22;18312;51.486;7.144;2023-04-16T14:35:45;14.30;99.90
31733;DHT22;18312;51.486;7.144;2023-04-16T14:38:12;14.40;99.90
31733;DHT22;18312;51.486;7.144;2023-04-16T14:40:38;14.40;99.90
31733;DHT22;18312;51.486;7.144;2023-04-16T14:43:05;14.30;99.90
31733;DHT22;18312;51.486;7.144;2023-04-16T14:45:31;14.20;99.90
31733;DHT22;18312;51.486;7.144;2023-04-16T14:47:59;14.40;99.90
31733;DHT22;18312;51.486;7.144;2023-04-16T14:50:26;14.50;99.90
31733;DHT22;18312;51.486;7.144;2023-04-16T14:52:52;14.60;99.90
31733;DHT22;18312;51.486;7.144;2023-04-16T14:55:19;14.70;99.90
31733;DHT22;18312;51.486;7.144;2023-04-16T14:57:46;14.70;99.90
31733;DHT22;18312;51.486;7.144;2023-04-16T15:00:12;14.80;99.90
31733;DHT22;18312;51.486;7.144;2023-04-16T15:02:41;14.90;99.90
31733;DHT22;18312;51.486;7.144;2023-04-16T15:05:09;15.00;99.90
31733;DHT22;18312;51.486;7.144;2023-04-16T15:07:35;14.80;98.90
31733;DHT22;18312;51.486;7.144;2023-04-16T15:10:02;14.90;99.40
31733;DHT22;18312;51.486;7.144;2023-04-16T15:12:29;15.00;98.50
31733;DHT22;18312;51.486;7.144;2023-04-16T15:14:55;14.80;99.30
31733;DHT22;18312;51.486;7.144;2023-04-16T15:17:22;14.70;99.70
31733;DHT22;18312;51.486;7.144;2023-04-16T15:19:48;14.80;99.30
31733;DHT22;18312;51.486;7.144;2023-04-16T15:22:17;14.80;99.20
31733;DHT22;18312;51.486;7.144;2023-04-16T15:24:44;14.80;98.90
31733;DHT22;18312;51.486;7.144;2023-04-16T15:27:11;14.70;98.60
31733;DHT22;18312;51.486;7.144;2023-04-16T15:29:39;14.90;98.90
31733;DHT22;18312;51.486;7.144;2023-04-16T15:32:07;14.90;99.20
31733;DHT22;18312;51.486;7.144;2023-04-16T15:34:33;14.70;98.40
31733;DHT22;18312;51.486;7.144;2023-04-16T15:37:00;14.60;99.00